Time;durP1;ratioP1;P1;durP2;ratioP2;P2;SDS_P1;SDS_P2;PMS_P1;PMS_P2;Temp;Humidity;BMP_temperature;BMP_pressure;BME280_temperature;BME280_humidity;BME280_pressure;Samples;Min_cycle;Max_cycle;Signal;HPM_P1;HPM_P2
2023/02/15 00:03:16;;;;;;;17.80;7.18;;;3.00;99.90;;;;;;10021855;28;20473;-69
2023/02/15 00:08:07;;;;;;;16.05;7.05;;;3.00;99.90;;;;;;10021819;28;20084;-69
2023/02/15 00:12:59;;;;;;;14.38;6.78;;;3.00;99.90;;;;;;10021763;28;20038;-70
2023/02/15 00:17:50;;;;;;;28.70;11.30;;;3.00;99.90;;;;;;10021971;28;20373;-68
2023/02/15 00:22:42;;;;;;;30.92;8.65;;;3.10;99.90;;;;;;10004314;28;20153;-69
2023/02/15 00:27:33;;;;;;;19.85;7.70;;;3.10;99.90;;;;;;10015699;28;20136;-69
2023/02/15 00:32:24;;;;;;;20.88;8.00;;;3.10;99.90;;;;;;10021804;28;20022;-69
2023/02/15 00:37:15;;;;;;;18.27;7.13;;;3.00;99.90;;;;;;10005658;28;20022;-69
2023/02/15 00:42:05;;;;;;;18.88;7.93;;;2.90;99.90;;;;;;10004073;28;20065;-69
2023/02/15 00:46:56;;;;;;;16.95;7.57;;;2.80;99.90;;;;;;10021320;28;20080;-69
2023/02/15 00:51:47;;;;;;;16.75;8.05;;;2.90;99.90;;;;;;10020548;28;20480;-69
2023/02/15 00:56:38;;;;;;;17.75;7.63;;;2.90;99.90;;;;;;10020289;28;20036;-69
2023/02/15 01:01:28;;;;;;;20.23;7.22;;;2.90;99.90;;;;;;10002422;28;20026;-68
2023/02/15 01:06:19;;;;;;;14.25;6.22;;;3.00;99.90;;;;;;10019991;28;20034;-68
2023/02/15 01:11:21;;;;;;;11.00;6.10;;;3.00;99.90;;;;;;10020067;28;20557;-70
2023/02/15 01:16:12;;;;;;;19.48;7.05;;;3.00;99.90;;;;;;10019799;28;20073;-69
2023/02/15 01:21:18;;;;;;;15.90;7.05;;;2.90;99.90;;;;;;10020143;28;20076;-69
2023/02/15 01:26:09;;;;;;;;;;;2.80;99.90;;;;;;10025651;28;20715;-68
2023/02/15 01:31:05;;;;;;;12.90;5.72;;;2.70;99.90;;;;;;10020263;28;19967;-69
2023/02/15 01:35:57;;;;;;;21.05;6.70;;;2.70;99.90;;;;;;10019828;28;20022;-69
2023/02/15 01:40:52;;;;;;;16.02;6.63;;;2.80;99.90;;;;;;10020183;28;20037;-69
2023/02/15 01:45:44;;;;;;;13.52;5.45;;;2.70;99.90;;;;;;10017961;28;20527;-70
2023/02/15 01:50:39;;;;;;;16.67;6.05;;;2.70;99.90;;;;;;10019261;28;20042;-69
2023/02/15 01:55:37;;;;;;;16.30;6.68;;;2.70;99.90;;;;;;10019449;28;20493;-69
2023/02/15 02:00:29;;;;;;;13.18;5.90;;;2.80;99.90;;;;;;10019090;28;20061;-68
2023/02/15 02:05:20;;;;;;;17.25;5.68;;;2.80;99.90;;;;;;10018775;28;20037;-68
2023/02/15 02:10:14;;;;;;;15.57;6.57;;;2.60;99.90;;;;;;10017381;28;20121;-69
2023/02/15 02:15:06;;;;;;;12.73;6.10;;;2.60;99.90;;;;;;10006717;28;20483;-70
2023/02/15 02:20:12;;;;;;;15.80;5.68;;;2.80;99.90;;;;;;10016768;28;20037;-69
2023/02/15 02:25:08;;;;;;;13.85;7.63;;;2.70;99.90;;;;;;10021409;28;20041;-69
2023/02/15 02:30:36;;;;;;;13.35;5.53;;;2.60;99.90;;;;;;10022497;28;20045;-69
2023/02/15 02:36:04;;;;;;;11.65;5.10;;;2.50;99.90;;;;;;10027020;28;20049;-68
2023/02/15 02:41:12;;;;;;;15.30;5.15;;;2.60;99.90;;;;;;10026834;28;20030;-70
2023/02/15 02:46:13;;;;;;;14.90;5.45;;;2.50;99.90;;;;;;10008878;28;20088;-69
2023/02/15 02:51:03;;;;;;;15.13;5.25;;;2.60;99.90;;;;;;10026823;28;20178;-68
2023/02/15 02:55:58;;;;;;;19.65;6.15;;;2.50;99.90;;;;;;10025320;28;20029;-70
2023/02/15 03:00:53;;;;;;;12.47;5.43;;;2.70;99.90;;;;;;10020048;28;20038;-69
2023/02/15 03:05:47;;;;;;;14.52;5.95;;;2.60;99.90;;;;;;10024781;28;20518;-68
2023/02/15 03:10:40;;;;;;;11.38;5.47;;;2.30;99.90;;;;;;10024755;28;20117;-69
2023/02/15 03:20:49;;;;;;;10.65;5.72;;;2.50;99.90;;;;;;10025532;28;20193;-69
2023/02/15 03:25:47;;;;;;;14.35;5.72;;;2.40;99.90;;;;;;10033538;28;20041;-69
2023/02/15 03:30:42;;;;;;;12.25;5.93;;;2.30;99.90;;;;;;10019207;28;20030;-69
2023/02/15 03:35:41;;;;;;;11.07;5.03;;;2.30;99.90;;;;;;10006426;28;20383;-69
2023/02/15 03:45:54;;;;;;;15.63;5.60;;;2.20;99.90;;;;;;10012544;28;20049;-70
2023/02/15 03:55:55;;;;;;;16.63;5.75;;;2.20;99.90;;;;;;10024482;28;20053;-70
2023/02/15 04:06:09;;;;;;;13.65;5.68;;;2.20;99.90;;;;;;10002013;28;20352;-69
2023/02/15 04:10:59;;;;;;;14.00;5.82;;;2.20;99.90;;;;;;10017665;28;20487;-69
2023/02/15 04:16:03;;;;;;;12.35;5.13;;;2.10;99.90;;;;;;10019040;28;20038;-70
2023/02/15 04:26:04;;;;;;;10.45;5.57;;;2.10;99.90;;;;;;10033103;28;20072;-69
2023/02/15 04:30:55;;;;;;;16.50;6.10;;;2.20;99.90;;;;;;10021535;28;20594;-69
2023/02/15 04:35:46;;;;;;;15.40;5.30;;;2.30;99.90;;;;;;10021797;28;20080;-68
2023/02/15 04:40:37;;;;;;;13.80;5.00;;;2.30;99.90;;;;;;10020643;28;20022;-70
2023/02/15 04:45:27;;;;;;;15.68;5.18;;;2.20;99.90;;;;;;10004597;28;20026;-69
2023/02/15 04:50:18;;;;;;;12.73;5.85;;;2.30;99.90;;;;;;10020915;28;20026;-70
2023/02/15 04:55:09;;;;;;;10.48;4.60;;;2.30;99.90;;;;;;10020579;28;20036;-69
2023/02/15 04:59:59;;;;;;;9.90;4.32;;;2.20;99.90;;;;;;10020220;28;20014;-69
2023/02/15 05:04:50;;;;;;;14.93;5.90;;;2.20;99.90;;;;;;10020951;28;20041;-69
2023/02/15 05:09:41;;;;;;;14.73;5.88;;;2.40;99.90;;;;;;10002970;28;20104;-69
2023/02/15 05:14:31;;;;;;;13.27;5.57;;;2.30;99.90;;;;;;10020218;28;20032;-69
2023/02/15 05:19:24;;;;;;;13.30;5.95;;;2.30;99.90;;;;;;10020396;28;20445;-68
2023/02/15 05:29:24;;;;;;;13.38;6.03;;;2.40;99.90;;;;;;10024532;28;20396;-69
2023/02/15 05:34:15;;;;;;;13.23;5.63;;;2.40;99.90;;;;;;10019229;28;20427;-69
2023/02/15 05:39:08;;;;;;;12.38;4.57;;;2.30;99.90;;;;;;10001531;28;20079;-70
2023/02/15 05:43:58;;;;;;;15.90;5.55;;;2.40;99.90;;;;;;10019925;28;20026;-68
2023/02/15 05:48:49;;;;;;;10.35;4.90;;;2.40;99.90;;;;;;10001217;28;20049;-69
2023/02/15 05:53:40;;;;;;;10.27;5.47;;;2.50;99.90;;;;;;10018919;28;20026;-68
2023/02/15 05:58:36;;;;;;;10.77;5.20;;;2.40;99.90;;;;;;10019607;28;20164;-69
2023/02/15 06:03:28;;;;;;;13.48;5.07;;;2.40;99.90;;;;;;9982875;28;20022;-68
2023/02/15 06:08:19;;;;;;;12.48;6.00;;;2.40;99.90;;;;;;9982716;28;20081;-70
2023/02/15 06:13:09;;;;;;;11.05;4.95;;;2.40;99.90;;;;;;10017572;28;20022;-69
2023/02/15 06:18:00;;;;;;;11.48;5.53;;;2.50;99.90;;;;;;10017493;28;20288;-69
2023/02/15 06:22:51;;;;;;;16.55;5.68;;;2.10;99.90;;;;;;10018226;28;20057;-71
2023/02/15 06:27:42;;;;;;;16.80;7.25;;;2.00;99.90;;;;;;10038274;28;20045;-69
2023/02/15 06:32:33;;;;;;;14.88;6.82;;;2.00;99.90;;;;;;10008549;28;20191;-70
2023/02/15 06:37:23;;;;;;;14.95;6.18;;;2.00;99.90;;;;;;10011178;28;20118;-68
2023/02/15 06:42:14;;;;;;;14.35;5.85;;;2.10;99.90;;;;;;10017555;28;20573;-69
2023/02/15 06:47:05;;;;;;;15.70;6.82;;;2.10;99.90;;;;;;10014864;28;20050;-69
2023/02/15 06:51:56;;;;;;;10.85;5.25;;;2.00;99.90;;;;;;10019729;28;20042;-69
2023/02/15 06:56:46;;;;;;;17.48;6.85;;;2.00;99.90;;;;;;10025384;28;20022;-70
2023/02/15 07:01:37;;;;;;;10.15;5.78;;;2.10;99.90;;;;;;10007058;28;20504;-69
2023/02/15 07:06:32;;;;;;;19.77;7.30;;;2.30;99.90;;;;;;10024911;28;20046;-70
2023/02/15 07:16:32;;;;;;;14.40;5.85;;;2.30;99.90;;;;;;10013810;28;20045;-69
2023/02/15 07:21:23;;;;;;;15.02;6.40;;;2.00;99.90;;;;;;10024602;28;20029;-68
2023/02/15 07:26:14;;;;;;;18.35;6.38;;;2.10;99.90;;;;;;10036331;28;20106;-69
2023/02/15 07:31:05;;;;;;;13.32;6.15;;;2.20;99.90;;;;;;10023761;28;20504;-70
2023/02/15 07:35:58;;;;;;;14.02;7.00;;;2.20;99.90;;;;;;10023775;28;20432;-70
2023/02/15 07:40:49;;;;;;;13.73;6.53;;;2.40;99.90;;;;;;9989441;28;20033;-65
2023/02/15 07:45:40;;;;;;;16.40;6.10;;;2.30;99.90;;;;;;10005093;28;20025;-65
2023/02/15 07:50:31;;;;;;;18.27;7.95;;;2.30;99.90;;;;;;10022973;28;20058;-63
2023/02/15 07:55:22;;;;;;;14.90;7.22;;;2.10;99.90;;;;;;10023703;28;20021;-64
2023/02/15 08:00:15;;;;;;;13.82;6.40;;;2.20;99.90;;;;;;10004678;28;20080;-66
2023/02/15 08:05:06;;;;;;;13.80;5.90;;;2.10;99.90;;;;;;10022358;28;20033;-63
2023/02/15 08:09:59;;;;;;;12.70;6.28;;;2.30;99.90;;;;;;10022091;28;20033;-66
2023/02/15 08:14:49;;;;;;;14.63;6.40;;;2.20;99.90;;;;;;10022653;28;20018;-68
2023/02/15 08:19:40;;;;;;;14.07;6.50;;;2.30;99.90;;;;;;10021689;28;20028;-66
2023/02/15 08:24:33;;;;;;;12.93;6.55;;;2.30;99.90;;;;;;10029004;28;20049;-71
2023/02/15 08:29:27;;;;;;;13.30;5.85;;;2.30;99.90;;;;;;10022166;28;20076;-65
2023/02/15 08:34:19;;;;;;;16.35;7.57;;;2.50;99.90;;;;;;10021767;28;20029;-65
2023/02/15 08:39:14;;;;;;;16.80;7.00;;;2.50;99.90;;;;;;10020696;28;20036;-66
2023/02/15 08:44:08;;;;;;;16.37;7.57;;;2.60;99.90;;;;;;10018735;28;20022;-66
2023/02/15 08:48:59;;;;;;;16.45;6.40;;;2.70;99.90;;;;;;10000246;28;20129;-67
2023/02/15 08:53:52;;;;;;;18.50;6.65;;;2.50;99.90;;;;;;10019991;28;20100;-61
2023/02/15 08:58:43;;;;;;;13.85;7.18;;;2.70;99.90;;;;;;10020375;28;20038;-67
2023/02/15 09:03:34;;;;;;;16.73;7.72;;;2.70;99.90;;;;;;10019574;28;20053;-63
2023/02/15 09:08:26;;;;;;;14.13;7.47;;;2.80;99.90;;;;;;10019811;28;20104;-65
2023/02/15 09:13:17;;;;;;;16.52;7.88;;;2.90;99.90;;;;;;10020128;28;20388;-68
2023/02/15 09:18:07;;;;;;;20.48;8.05;;;2.90;99.90;;;;;;10002690;28;20044;-70
2023/02/15 09:22:58;;;;;;;17.48;7.63;;;3.00;99.90;;;;;;10019490;28;20033;-62
2023/02/15 09:27:49;;;;;;;20.45;9.15;;;3.00;99.90;;;;;;10022786;28;20034;-65
2023/02/15 09:32:39;;;;;;;18.85;7.22;;;3.10;99.90;;;;;;10017550;28;20026;-67
2023/02/15 09:37:31;;;;;;;19.42;7.20;;;3.10;99.90;;;;;;10001814;28;20591;-61
2023/02/15 09:42:40;;;;;;;13.38;6.85;;;3.20;99.90;;;;;;10019967;28;20033;-66
2023/02/15 09:47:48;;;;;;;18.15;8.10;;;3.10;99.90;;;;;;10018355;28;20068;-63
2023/02/15 09:53:15;;;;;;;18.90;8.63;;;3.20;99.90;;;;;;10016338;28;20657;-65
2023/02/15 09:58:09;;;;;;;20.00;8.10;;;3.00;99.90;;;;;;10017537;28;20393;-64
2023/02/15 10:03:21;;;;;;;21.27;9.43;;;3.10;99.90;;;;;;10017114;28;20018;-62
2023/02/15 10:08:21;;;;;;;19.95;8.55;;;3.20;99.90;;;;;;10017013;28;20034;-63
2023/02/15 10:13:25;;;;;;;21.98;9.10;;;3.10;99.90;;;;;;10009439;28;20030;-62
2023/02/15 10:18:33;;;;;;;20.05;9.73;;;2.90;99.90;;;;;;10011105;28;20030;-62
2023/02/15 10:23:53;;;;;;;14.30;7.40;;;3.10;99.90;;;;;;9996647;28;20120;-62
2023/02/15 10:28:55;;;;;;;23.10;8.80;;;3.50;99.90;;;;;;10009497;28;20069;-64
2023/02/15 10:33:46;;;;;;;20.60;9.02;;;3.80;99.90;;;;;;10013318;28;20038;-65
2023/02/15 10:38:48;;;;;;;23.60;9.88;;;3.90;99.90;;;;;;9999990;28;20034;-65
2023/02/15 10:44:01;;;;;;;21.52;9.80;;;4.00;99.90;;;;;;10015169;28;20022;-61
2023/02/15 10:49:24;;;;;;;23.08;11.20;;;4.10;99.90;;;;;;10020664;28;20535;-61
2023/02/15 10:54:36;;;;;;;25.13;11.85;;;4.00;99.90;;;;;;10023287;28;20170;-62
2023/02/15 10:59:52;;;;;;;21.13;9.45;;;4.30;99.90;;;;;;10022322;28;20109;-61
2023/02/15 11:05:02;;;;;;;;;;;4.60;99.90;;;;;;10023691;28;20030;-60
2023/02/15 11:10:17;;;;;;;19.85;8.95;;;4.70;99.90;;;;;;10021997;28;19918;-61
2023/02/15 11:15:31;;;;;;;16.85;8.88;;;4.60;99.90;;;;;;10019109;28;20014;-64
2023/02/15 11:20:35;;;;;;;24.38;9.82;;;4.70;99.90;;;;;;10022802;28;20025;-66
2023/02/15 11:25:31;;;;;;;21.48;10.35;;;4.50;99.90;;;;;;10011093;28;20057;-65
2023/02/15 11:30:25;;;;;;;22.75;10.20;;;4.50;99.90;;;;;;10020605;28;20551;-65
2023/02/15 11:35:31;;;;;;;21.52;10.35;;;4.80;99.90;;;;;;10017843;28;20034;-62
2023/02/15 11:40:27;;;;;;;;;;;4.90;99.90;;;;;;9999956;28;20392;-65
2023/02/15 11:45:30;;;;;;;20.97;9.57;;;4.90;99.90;;;;;;10008703;28;19950;-67
2023/02/15 11:50:29;;;;;;;20.10;10.05;;;4.80;99.90;;;;;;10013267;28;20472;-64
2023/02/15 11:55:22;;;;;;;28.10;11.63;;;4.80;99.90;;;;;;10000896;28;20028;-69
2023/02/15 12:00:25;;;;;;;25.30;12.63;;;4.70;99.90;;;;;;10006935;28;20033;-69
2023/02/15 12:05:21;;;;;;;24.77;12.32;;;4.80;99.90;;;;;;9994083;28;21255;-67
2023/02/15 12:10:31;;;;;;;28.00;11.60;;;5.20;99.90;;;;;;9992719;28;20088;-66
2023/02/15 12:15:31;;;;;;;27.98;13.35;;;5.50;99.90;;;;;;9994912;28;20031;-66
2023/02/15 12:20:29;;;;;;;24.63;10.88;;;5.50;99.90;;;;;;9974069;28;20022;-62
2023/02/15 12:25:36;;;;;;;25.77;12.90;;;5.40;99.90;;;;;;9988982;28;20077;-65
2023/02/15 12:30:34;;;;;;;21.75;10.55;;;5.10;99.90;;;;;;10004586;28;20034;-62
2023/02/15 12:35:34;;;;;;;26.05;11.20;;;4.90;99.90;;;;;;9999328;28;20060;-61
2023/02/15 12:40:27;;;;;;;21.73;11.05;;;4.90;99.90;;;;;;10016116;28;20025;-60
2023/02/15 12:45:26;;;;;;;22.38;11.38;;;5.00;99.90;;;;;;10017093;28;20039;-64
2023/02/15 12:50:27;;;;;;;26.08;12.75;;;5.40;99.90;;;;;;9998975;28;20042;-64
2023/02/15 12:55:21;;;;;;;20.42;10.45;;;5.80;99.90;;;;;;10018623;28;20036;-64
2023/02/15 13:00:18;;;;;;;30.60;13.07;;;6.00;99.90;;;;;;10016403;28;20104;-63
2023/02/15 13:05:27;;;;;;;23.83;12.68;;;6.40;99.90;;;;;;10012466;28;20399;-61
2023/02/15 13:10:24;;;;;;;23.67;12.18;;;6.50;99.90;;;;;;10015715;28;20026;-66
2023/02/15 13:15:36;;;;;;;26.23;13.27;;;6.70;99.90;;;;;;9998659;28;20506;-61
2023/02/15 13:20:28;;;;;;;23.27;11.98;;;7.20;99.90;;;;;;10015620;28;20034;-66
2023/02/15 13:25:21;;;;;;;30.75;12.57;;;7.60;99.90;;;;;;10002211;28;20424;-66
2023/02/15 13:30:25;;;;;;;28.40;13.63;;;8.20;99.90;;;;;;10010322;28;20133;-66
2023/02/15 13:35:18;;;;;;;24.35;13.57;;;8.40;99.90;;;;;;10014475;28;20026;-60
2023/02/15 13:40:17;;;;;;;23.25;14.50;;;8.80;99.90;;;;;;10015901;28;20445;-61
2023/02/15 13:45:14;;;;;;;28.23;14.98;;;9.20;99.90;;;;;;10015586;28;20025;-63
2023/02/15 13:50:28;;;;;;;25.95;14.35;;;9.40;99.90;;;;;;10014835;28;20117;-64
2023/02/15 13:55:40;;;;;;;27.50;15.27;;;9.50;99.90;;;;;;10015309;28;20024;-65
2023/02/15 14:00:52;;;;;;;25.10;14.57;;;9.60;99.90;;;;;;10011434;28;20048;-62
2023/02/15 14:05:49;;;;;;;25.27;13.38;;;9.30;99.90;;;;;;10015240;28;20037;-65
2023/02/15 14:10:59;;;;;;;31.60;13.77;;;9.20;99.90;;;;;;10017059;28;20038;-61
2023/02/15 14:16:23;;;;;;;28.73;14.43;;;9.20;99.90;;;;;;10013600;28;20030;-66
2023/02/15 14:21:47;;;;;;;25.63;14.52;;;9.20;99.90;;;;;;10020961;28;20042;-64
2023/02/15 14:26:43;;;;;;;25.90;13.60;;;9.10;99.90;;;;;;10024615;28;20078;-63
2023/02/15 14:31:44;;;;;;;34.55;16.25;;;9.00;99.90;;;;;;10023788;28;20115;-63
2023/02/15 14:36:35;;;;;;;29.90;14.95;;;8.80;99.90;;;;;;10020291;28;20022;-64
2023/02/15 14:41:39;;;;;;;29.25;13.95;;;8.80;99.90;;;;;;10018485;28;20085;-60
2023/02/15 14:46:33;;;;;;;26.85;14.48;;;8.70;99.90;;;;;;10022926;28;20135;-62
2023/02/15 14:51:47;;;;;;;26.10;13.25;;;8.70;99.90;;;;;;10023007;28;20044;-69
2023/02/15 14:56:40;;;;;;;27.10;15.45;;;8.40;99.90;;;;;;10019254;28;20107;-64
2023/02/15 15:01:36;;;;;;;31.38;14.30;;;8.30;99.90;;;;;;10023012;28;20558;-62
2023/02/15 15:06:37;;;;;;;;;;;8.10;99.90;;;;;;10021370;28;20369;-66
2023/02/15 15:11:28;;;;;;;30.13;13.20;;;7.60;99.90;;;;;;10019925;28;19909;-65
2023/02/15 15:16:29;;;;;;;31.38;15.27;;;7.60;99.90;;;;;;10021326;28;20026;-63
2023/02/15 15:26:50;;;;;;;33.13;14.70;;;7.20;99.90;;;;;;10012827;28;20061;-68
2023/02/15 15:31:58;;;;;;;32.88;13.75;;;7.10;99.90;;;;;;9988269;28;20499;-67
2023/02/15 15:37:25;;;;;;;42.15;15.35;;;7.00;99.90;;;;;;10001130;28;20013;-65
2023/02/15 15:42:36;;;;;;;28.15;13.35;;;6.90;99.90;;;;;;10011277;28;20030;-65
2023/02/15 15:47:46;;;;;;;29.45;12.65;;;6.60;99.90;;;;;;10008338;28;20241;-62
2023/02/15 15:52:39;;;;;;;32.40;14.02;;;6.60;99.90;;;;;;10000867;28;20526;-66
2023/02/15 15:57:40;;;;;;;28.50;13.10;;;6.40;99.90;;;;;;10011524;28;20018;-68
2023/02/15 16:02:31;;;;;;;26.73;13.13;;;6.30;99.90;;;;;;10004823;28;20550;-69
2023/02/15 16:07:25;;;;;;;28.50;13.65;;;6.20;99.90;;;;;;9980932;28;20087;-69
2023/02/15 16:12:19;;;;;;;25.20;13.10;;;5.90;99.90;;;;;;10016780;28;20396;-70
2023/02/15 16:17:31;;;;;;;28.38;12.18;;;5.70;99.90;;;;;;10014639;28;20570;-69
2023/02/15 16:22:26;;;;;;;27.83;12.05;;;5.60;99.90;;;;;;10012651;28;20381;-61
2023/02/15 16:27:41;;;;;;;26.02;13.48;;;5.50;99.90;;;;;;10014931;28;20042;-64
2023/02/15 16:32:35;;;;;;;25.65;13.07;;;5.40;99.90;;;;;;10002962;28;20034;-63
2023/02/15 16:37:31;;;;;;;29.92;14.68;;;5.30;99.90;;;;;;10000119;28;20324;-65
2023/02/15 16:42:23;;;;;;;32.28;13.93;;;5.10;99.90;;;;;;9998994;28;20033;-63
2023/02/15 16:47:25;;;;;;;30.00;14.25;;;5.00;99.90;;;;;;10007714;28;20164;-67
2023/02/15 16:52:22;;;;;;;22.23;10.68;;;4.90;99.90;;;;;;9989662;28;20028;-66
2023/02/15 16:57:23;;;;;;;28.10;11.07;;;4.80;99.90;;;;;;10009253;28;20527;-68
2023/02/15 17:02:29;;;;;;;28.83;13.40;;;4.70;99.90;;;;;;10007907;28;20513;-68
2023/02/15 17:07:20;;;;;;;28.65;13.25;;;4.70;99.90;;;;;;10014697;28;20041;-65
2023/02/15 17:12:11;;;;;;;30.45;13.98;;;4.60;99.90;;;;;;10015483;28;20045;-64
2023/02/15 17:17:14;;;;;;;30.27;12.38;;;4.60;99.90;;;;;;9995081;28;20100;-65
2023/02/15 17:22:08;;;;;;;35.58;12.40;;;4.50;99.90;;;;;;10018032;28;20049;-64
2023/02/15 17:27:07;;;;;;;25.20;12.55;;;4.50;99.90;;;;;;10008798;28;20084;-67
2023/02/15 17:31:58;;;;;;;30.40;11.45;;;4.40;99.90;;;;;;10016854;28;20576;-68
2023/02/15 17:37:02;;;;;;;29.20;13.55;;;4.30;99.90;;;;;;10012001;28;20026;-65
2023/02/15 17:41:52;;;;;;;28.27;11.55;;;4.30;99.90;;;;;;9996688;28;20021;-64
2023/02/15 17:46:43;;;;;;;24.10;12.10;;;4.40;99.90;;;;;;10003160;28;20060;-65
2023/02/15 17:51:34;;;;;;;28.08;13.07;;;4.30;99.90;;;;;;10004336;28;20496;-64
2023/02/15 17:56:25;;;;;;;23.60;10.45;;;4.30;99.90;;;;;;9997909;28;20885;-64
2023/02/15 18:11:37;;;;;;;26.33;12.55;;;4.20;99.90;;;;;;10001708;28;20650;-63
2023/02/15 18:16:32;;;;;;;29.15;11.73;;;4.10;99.90;;;;;;10011676;28;20037;-63
2023/02/15 18:21:23;;;;;;;29.30;11.57;;;4.20;99.90;;;;;;10007840;28;20034;-64
2023/02/15 18:26:20;;;;;;;33.08;14.45;;;4.30;99.90;;;;;;10014972;28;20060;-64
2023/02/15 18:31:11;;;;;;;30.40;13.77;;;4.20;99.90;;;;;;9997810;28;20066;-65
2023/02/15 18:36:05;;;;;;;36.92;15.70;;;4.00;99.90;;;;;;10025976;22;20046;-65
2023/02/15 18:40:56;;;;;;;37.15;13.75;;;3.90;99.90;;;;;;10013670;28;20030;-67
2023/02/15 18:45:47;;;;;;;35.88;16.08;;;3.80;99.90;;;;;;10008781;28;20022;-64
2023/02/15 18:50:37;;;;;;;28.50;14.13;;;3.80;99.90;;;;;;10011226;28;20045;-67
2023/02/15 18:55:31;;;;;;;37.40;15.80;;;3.60;99.90;;;;;;10012581;28;20224;-65
2023/02/15 19:00:27;;;;;;;27.30;14.77;;;3.60;99.90;;;;;;9983674;28;20029;-64
2023/02/15 19:05:17;;;;;;;;;;;3.70;99.90;;;;;;9998490;28;20033;-64
2023/02/15 19:10:14;;;;;;;36.03;16.33;;;3.70;99.90;;;;;;10016265;28;19923;-64
2023/02/15 19:15:05;;;;;;;43.72;16.83;;;3.70;99.90;;;;;;10004988;28;20018;-62
2023/02/15 19:19:56;;;;;;;33.05;13.98;;;3.70;99.90;;;;;;10005120;28;20128;-69
2023/02/15 19:24:47;;;;;;;36.45;15.80;;;3.80;99.90;;;;;;10022043;28;20113;-67
2023/02/15 19:29:38;;;;;;;33.80;14.13;;;3.70;99.90;;;;;;10024160;28;20188;-65
2023/02/15 19:34:28;;;;;;;38.28;15.13;;;3.80;99.90;;;;;;10033818;23;20148;-68
2023/02/15 19:39:24;;;;;;;29.92;13.55;;;3.70;99.90;;;;;;10056646;28;20036;-66
2023/02/15 19:44:16;;;;;;;31.88;14.40;;;3.70;99.90;;;;;;10046834;28;20022;-67
2023/02/15 19:49:08;;;;;;;33.60;13.10;;;3.70;99.90;;;;;;10035969;28;20092;-65
2023/02/15 19:53:59;;;;;;;26.40;12.05;;;3.70;99.90;;;;;;10058010;28;20024;-64
2023/02/15 19:58:57;;;;;;;26.42;11.20;;;3.80;99.90;;;;;;10040269;28;20021;-65
2023/02/15 20:03:50;;;;;;;31.05;12.68;;;3.80;99.90;;;;;;10051295;28;20104;-64
2023/02/15 20:08:41;;;;;;;41.70;15.30;;;3.90;99.90;;;;;;10049688;28;20044;-68
2023/02/15 20:13:32;;;;;;;28.20;13.57;;;4.00;99.90;;;;;;10040918;28;20496;-69
2023/02/15 20:18:22;;;;;;;29.63;12.23;;;3.90;99.90;;;;;;10054117;28;20026;-68
2023/02/15 20:23:39;;;;;;;32.78;13.52;;;3.90;99.90;;;;;;10055921;28;20621;-68
2023/02/15 20:28:31;;;;;;;24.05;11.77;;;4.00;99.90;;;;;;10043900;28;20046;-68
2023/02/15 20:33:21;;;;;;;34.38;14.60;;;4.10;99.90;;;;;;10044156;28;20389;-68
2023/02/15 20:38:24;;;;;;;27.85;13.63;;;4.10;99.90;;;;;;10059173;28;20439;-67
2023/02/15 20:43:14;;;;;;;31.63;13.55;;;4.00;99.90;;;;;;10061310;28;20064;-65
2023/02/15 20:48:05;;;;;;;37.08;13.80;;;4.00;99.90;;;;;;10057468;28;20049;-64
2023/02/15 20:52:58;;;;;;;34.53;13.52;;;4.00;99.90;;;;;;10058315;28;20040;-64
2023/02/15 20:57:49;;;;;;;33.65;13.05;;;3.80;99.90;;;;;;10056974;28;20463;-65
2023/02/15 21:02:45;;;;;;;32.85;13.20;;;3.80;99.90;;;;;;10054749;28;20026;-65
2023/02/15 21:07:35;;;;;;;28.43;12.93;;;3.90;99.90;;;;;;10054400;28;20041;-64
2023/02/15 21:12:28;;;;;;;31.48;14.63;;;3.90;99.90;;;;;;10037611;28;20104;-65
2023/02/15 21:17:18;;;;;;;32.22;13.48;;;3.80;99.90;;;;;;10055908;28;20036;-65
2023/02/15 21:22:14;;;;;;;39.83;14.45;;;3.80;99.90;;;;;;10058995;28;20017;-68
2023/02/15 21:27:05;;;;;;;;;;;3.90;99.90;;;;;;10055128;28;20399;-64
2023/02/15 21:32:01;;;;;;;31.60;12.18;;;3.80;99.90;;;;;;10054452;28;19905;-67
2023/02/15 21:36:52;;;;;;;29.27;14.68;;;3.80;99.90;;;;;;10051822;28;20144;-70
2023/02/15 21:52:10;;;;;;;36.85;14.80;;;3.60;99.90;;;;;;10050585;28;20052;-67
2023/02/15 21:57:02;;;;;;;37.85;14.13;;;3.60;99.90;;;;;;10049411;28;20034;-65
2023/02/15 22:01:53;;;;;;;30.10;12.02;;;3.60;99.90;;;;;;10048246;28;20187;-71
2023/02/15 22:06:44;;;;;;;28.48;12.55;;;3.50;99.90;;;;;;10040068;28;20029;-64
2023/02/15 22:11:34;;;;;;;26.55;10.68;;;3.40;99.90;;;;;;10036217;28;20029;-64
2023/02/15 22:16:25;;;;;;;26.20;10.98;;;3.30;99.90;;;;;;10056374;28;20029;-64
2023/02/15 22:21:16;;;;;;;25.48;10.65;;;3.50;99.90;;;;;;10050794;28;20061;-66
2023/02/15 22:26:16;;;;;;;23.05;8.82;;;3.60;99.90;;;;;;10029598;28;20057;-64
2023/02/15 22:31:13;;;;;;;20.02;10.13;;;3.50;99.90;;;;;;10050099;28;20055;-63
2023/02/15 22:36:04;;;;;;;22.90;9.27;;;3.30;99.90;;;;;;10039147;28;20053;-64
2023/02/15 22:41:02;;;;;;;21.08;8.52;;;3.20;99.90;;;;;;10034740;28;20041;-65
2023/02/15 22:45:59;;;;;;;20.40;8.70;;;3.20;99.90;;;;;;10047499;28;20207;-63
2023/02/15 22:50:50;;;;;;;24.50;10.63;;;3.20;99.90;;;;;;10031611;28;20046;-64
2023/02/15 22:55:40;;;;;;;21.65;9.57;;;3.00;99.90;;;;;;10039596;28;20463;-65
2023/02/15 23:00:37;;;;;;;21.83;8.88;;;2.80;99.90;;;;;;10044792;28;20100;-64
2023/02/15 23:05:29;;;;;;;15.13;7.70;;;2.70;99.90;;;;;;10057720;28;20431;-63
2023/02/15 23:10:23;;;;;;;17.95;8.43;;;2.60;99.90;;;;;;10026894;28;20180;-63
2023/02/15 23:15:14;;;;;;;16.38;7.18;;;2.80;99.90;;;;;;10034460;28;20044;-64
2023/02/15 23:20:06;;;;;;;17.15;8.02;;;2.80;99.90;;;;;;10056835;28;20377;-64
2023/02/15 23:24:57;;;;;;;14.70;6.90;;;2.80;99.90;;;;;;10060494;28;20095;-63
2023/02/15 23:29:48;;;;;;;16.13;7.82;;;2.90;99.90;;;;;;10023013;28;20041;-63
2023/02/15 23:34:39;;;;;;;16.45;7.95;;;3.10;99.90;;;;;;10013308;28;20045;-65
2023/02/15 23:44:39;;;;;;;17.98;7.85;;;2.80;99.90;;;;;;10052336;28;20056;-64
2023/02/15 23:49:30;;;;;;;21.92;8.90;;;2.80;99.90;;;;;;10032319;28;20591;-61
2023/02/15 23:54:24;;;;;;;18.02;8.65;;;3.00;99.90;;;;;;10063891;28;20128;-65
2023/02/15 23:59:23;;;;;;;20.55;8.40;;;2.70;99.90;;;;;;10061044;28;20030;-66
